createdAt,value
2023-08-29T00:03:49.148Z,25.14
2023-08-29T00:08:01.634Z,25.11
2023-08-29T00:12:14.071Z,25.10
2023-08-29T00:16:26.803Z,25.20
2023-08-29T00:20:39.188Z,25.29
2023-08-29T00:24:53.796Z,25.43
2023-08-29T00:29:06.386Z,25.43
2023-08-29T00:33:18.917Z,25.87
2023-08-29T00:37:31.229Z,26.45
2023-08-29T00:41:45.255Z,26.05
2023-08-29T00:46:00.502Z,26.01
2023-08-29T00:50:13.008Z,26.03
2023-08-29T00:54:26.060Z,25.90
2023-08-29T00:58:38.572Z,25.87
2023-08-29T01:02:51.151Z,25.89
2023-08-29T01:07:04.860Z,26.07
2023-08-29T01:11:35.592Z,26.20
2023-08-29T01:15:51.974Z,26.24
2023-08-29T01:20:06.661Z,26.26
2023-08-29T01:24:27.701Z,26.37
2023-08-29T01:28:42.389Z,26.29
2023-08-29T01:32:56.462Z,26.31
2023-08-29T01:37:10.005Z,26.25
2023-08-29T01:41:22.364Z,26.27
2023-08-29T01:45:35.163Z,25.93
2023-08-29T01:49:48.198Z,25.53
2023-08-29T01:54:00.911Z,25.43
2023-08-29T01:58:15.648Z,25.52
2023-08-29T02:02:28.392Z,25.55
2023-08-29T02:06:40.795Z,25.63
2023-08-29T02:10:54.456Z,25.64
2023-08-29T02:15:07.766Z,25.56
2023-08-29T02:19:21.003Z,25.62
2023-08-29T02:23:33.384Z,25.66
2023-08-29T02:27:45.734Z,25.69
2023-08-29T02:31:58.152Z,25.60
2023-08-29T02:36:10.529Z,25.58
2023-08-29T02:40:23.864Z,25.37
2023-08-29T02:44:36.341Z,25.30
2023-08-29T02:48:48.827Z,25.25
2023-08-29T02:53:01.241Z,25.22
2023-08-29T02:57:13.801Z,25.16
2023-08-29T03:01:26.214Z,25.09
2023-08-29T03:05:38.645Z,25.05
2023-08-29T03:09:51.089Z,25.02
2023-08-29T03:14:05.235Z,24.91
2023-08-29T03:18:17.923Z,24.76
2023-08-29T03:22:32.765Z,24.78
2023-08-29T03:26:45.137Z,24.69
2023-08-29T03:30:57.634Z,24.63
2023-08-29T03:35:09.981Z,24.61
2023-08-29T03:39:22.554Z,24.57
2023-08-29T03:43:36.726Z,24.50
2023-08-29T03:47:50.479Z,23.75
2023-08-29T03:52:03.970Z,23.02
2023-08-29T03:56:17.065Z,22.73
2023-08-29T04:00:29.523Z,22.33
2023-08-29T04:04:45.690Z,22.06
2023-08-29T04:08:58.302Z,22.08
2023-08-29T04:13:11.641Z,22.09
2023-08-29T04:17:26.475Z,22.18
2023-08-29T04:21:39.000Z,22.25
2023-08-29T04:25:51.400Z,22.30
2023-08-29T04:30:05.765Z,22.41
2023-08-29T04:34:18.607Z,22.39
2023-08-29T04:38:32.906Z,22.35
2023-08-29T04:42:49.080Z,22.40
2023-08-29T04:47:01.943Z,22.47
2023-08-29T04:51:14.530Z,22.61
2023-08-29T04:55:27.664Z,22.60
2023-08-29T04:59:40.165Z,22.72
2023-08-29T05:03:53.004Z,22.84
2023-08-29T05:08:06.117Z,22.93
2023-08-29T05:12:20.901Z,23.14
2023-08-29T05:16:34.156Z,23.10
2023-08-29T05:20:46.706Z,23.37
2023-08-29T05:24:59.179Z,23.96
2023-08-29T05:29:11.612Z,24.52
2023-08-29T05:33:23.920Z,24.56
2023-08-29T05:37:36.440Z,25.71
2023-08-29T05:41:48.778Z,26.56
2023-08-29T05:46:02.255Z,27.13
2023-08-29T05:50:17.886Z,26.97
2023-08-29T05:54:31.103Z,26.77
2023-08-29T05:58:44.268Z,26.44
2023-08-29T06:02:56.774Z,25.76
2023-08-29T06:07:09.314Z,25.39
2023-08-29T06:11:21.771Z,25.33
2023-08-29T06:15:34.096Z,25.52
2023-08-29T06:19:46.889Z,25.38
2023-08-29T06:23:59.675Z,25.71
2023-08-29T06:28:12.115Z,26.18
2023-08-29T06:32:24.616Z,26.56
2023-08-29T06:36:37.086Z,26.11
2023-08-29T06:40:59.838Z,26.26
2023-08-29T06:45:12.327Z,26.34
2023-08-29T06:49:24.699Z,26.25
2023-08-29T06:53:37.126Z,26.40
2023-08-29T06:57:49.647Z,26.30
2023-08-29T07:02:02.146Z,26.20
2023-08-29T07:06:14.572Z,26.37
2023-08-29T07:10:27.439Z,26.22
2023-08-29T07:14:42.793Z,26.51
2023-08-29T07:18:56.417Z,27.16
2023-08-29T07:23:09.173Z,27.71
2023-08-29T07:27:21.641Z,27.02
2023-08-29T07:31:35.871Z,26.72
2023-08-29T07:35:50.134Z,26.85
2023-08-29T07:40:02.595Z,26.83
2023-08-29T07:44:15.089Z,27.19
2023-08-29T07:48:27.527Z,27.33
2023-08-29T07:52:41.913Z,27.60
2023-08-29T07:56:54.901Z,27.90
2023-08-29T08:01:07.207Z,27.99
2023-08-29T08:05:20.168Z,27.82
2023-08-29T08:09:33.659Z,27.90
2023-08-29T08:13:46.335Z,28.21
2023-08-29T08:17:58.669Z,28.48
2023-08-29T08:22:11.922Z,28.84
2023-08-29T08:26:24.289Z,29.55
2023-08-29T08:30:41.340Z,29.54
2023-08-29T08:34:56.762Z,29.58
2023-08-29T08:39:09.259Z,30.53
2023-08-29T08:43:23.032Z,29.84
2023-08-29T08:47:36.738Z,29.63
2023-08-29T08:51:50.158Z,29.56
2023-08-29T08:56:04.012Z,29.83
2023-08-29T09:00:17.004Z,28.88
2023-08-29T09:04:29.449Z,28.34
2023-08-29T09:08:43.510Z,28.25
2023-08-29T09:12:57.556Z,28.21
2023-08-29T09:17:12.757Z,28.55
2023-08-29T09:21:26.244Z,29.22
2023-08-29T09:25:38.992Z,29.17
2023-08-29T09:29:51.481Z,29.99
2023-08-29T09:34:06.271Z,29.90
2023-08-29T09:38:20.048Z,30.79
2023-08-29T09:42:32.617Z,30.94
2023-08-29T09:46:46.704Z,31.44
2023-08-29T09:51:01.053Z,32.68
2023-08-29T09:55:16.478Z,31.03
2023-08-29T09:59:32.754Z,31.70
2023-08-29T10:03:48.127Z,31.23
2023-08-29T10:08:07.012Z,31.93
2023-08-29T10:12:20.649Z,32.36
2023-08-29T10:16:33.662Z,31.65
2023-08-29T10:20:47.524Z,30.94
2023-08-29T10:25:02.161Z,29.79
2023-08-29T10:29:15.992Z,30.16
2023-08-29T10:33:30.223Z,29.81
2023-08-29T10:37:43.423Z,29.61
2023-08-29T10:41:58.018Z,30.25
2023-08-29T10:46:13.542Z,31.12
2023-08-29T10:50:28.486Z,31.84
2023-08-29T10:54:41.891Z,32.45
2023-08-29T10:58:54.513Z,32.62
2023-08-29T11:03:07.265Z,32.15
2023-08-29T11:07:27.139Z,32.20
2023-08-29T11:11:40.790Z,33.59
2023-08-29T11:15:53.157Z,33.23
2023-08-29T11:20:08.463Z,31.39
2023-08-29T11:24:22.613Z,32.02
2023-08-29T11:28:35.720Z,31.99
2023-08-29T11:32:53.070Z,31.29
2023-08-29T11:37:11.374Z,30.11
2023-08-29T11:41:38.200Z,29.96
2023-08-29T11:46:00.456Z,30.31
2023-08-29T11:50:13.387Z,33.16
2023-08-29T11:54:47.102Z,32.34
2023-08-29T11:59:02.234Z,32.42
2023-08-29T12:03:14.830Z,32.54
2023-08-29T12:07:33.863Z,32.76
2023-08-29T12:11:47.604Z,32.71
2023-08-29T12:16:00.113Z,32.45
2023-08-29T12:20:15.457Z,32.15
2023-08-29T12:24:28.104Z,32.13
2023-08-29T12:28:41.069Z,31.75
2023-08-29T12:32:54.610Z,31.93
2023-08-29T12:37:07.170Z,32.11
2023-08-29T12:41:19.606Z,32.31
2023-08-29T12:45:36.639Z,31.50
2023-08-29T12:49:57.321Z,32.26
2023-08-29T12:54:10.314Z,32.28
2023-08-29T12:58:22.831Z,31.43
2023-08-29T13:02:36.110Z,31.72
2023-08-29T13:06:48.596Z,32.13
2023-08-29T13:11:01.621Z,31.76
2023-08-29T13:15:17.255Z,30.83
2023-08-29T13:19:29.859Z,31.12
2023-08-29T13:23:42.280Z,30.96
2023-08-29T13:27:57.888Z,30.96
2023-08-29T13:32:10.714Z,30.93
2023-08-29T13:36:23.311Z,31.08
2023-08-29T13:40:52.545Z,31.04
2023-08-29T13:45:05.957Z,31.79
2023-08-29T13:49:18.825Z,31.58
2023-08-29T13:53:31.325Z,30.58
2023-08-29T13:57:44.245Z,30.87
2023-08-29T14:01:56.775Z,30.61
2023-08-29T14:06:09.751Z,30.88
2023-08-29T14:10:22.211Z,31.01
2023-08-29T14:14:34.604Z,31.25
2023-08-29T14:18:47.511Z,31.56
2023-08-29T14:23:02.419Z,30.53
2023-08-29T14:27:14.876Z,31.55
2023-08-29T14:31:27.352Z,30.94
2023-08-29T14:35:40.204Z,29.98
2023-08-29T14:39:52.741Z,29.96
2023-08-29T14:44:06.756Z,29.88
2023-08-29T14:48:21.298Z,30.38
2023-08-29T14:52:34.129Z,30.11
2023-08-29T14:56:46.543Z,30.78
2023-08-29T15:00:59.279Z,30.60
2023-08-29T15:05:13.146Z,30.33
2023-08-29T15:09:25.555Z,30.25
2023-08-29T15:13:39.996Z,30.69
2023-08-29T15:17:52.638Z,30.83
2023-08-29T15:22:05.233Z,30.91
2023-08-29T15:26:17.615Z,30.06
2023-08-29T15:30:30.020Z,30.09
2023-08-29T15:34:42.403Z,29.83
2023-08-29T15:38:54.876Z,29.48
2023-08-29T15:43:07.222Z,28.77
2023-08-29T15:47:19.567Z,28.89
2023-08-29T15:51:33.158Z,29.36
2023-08-29T15:55:47.109Z,29.52
2023-08-29T15:59:59.718Z,29.90
2023-08-29T16:04:12.989Z,29.81
2023-08-29T16:08:26.720Z,29.64
2023-08-29T16:12:39.238Z,29.16
2023-08-29T16:16:51.596Z,29.31
2023-08-29T16:21:05.262Z,28.93
2023-08-29T16:25:17.827Z,28.31
2023-08-29T16:29:31.759Z,27.95
2023-08-29T16:33:44.089Z,27.86
2023-08-29T16:38:05.642Z,27.63
2023-08-29T16:42:18.336Z,27.39
2023-08-29T16:46:31.482Z,27.32
2023-08-29T16:50:47.008Z,27.20
2023-08-29T16:54:59.607Z,27.01
2023-08-29T16:59:14.794Z,26.92
2023-08-29T17:03:27.392Z,26.84
2023-08-29T17:07:39.863Z,26.78
2023-08-29T17:11:52.343Z,26.58
2023-08-29T17:16:06.277Z,26.50
2023-08-29T17:20:18.974Z,26.40
2023-08-29T17:24:32.488Z,26.40
2023-08-29T17:28:44.995Z,26.51
2023-08-29T17:32:57.578Z,26.16
2023-08-29T17:37:10.037Z,26.19
2023-08-29T17:41:23.815Z,26.20
2023-08-29T17:45:43.974Z,26.03
2023-08-29T17:49:56.484Z,25.95
2023-08-29T17:54:09.357Z,25.67
2023-08-29T17:58:25.821Z,25.57
2023-08-29T18:02:38.435Z,25.37
2023-08-29T18:06:50.863Z,25.29
2023-08-29T18:11:03.455Z,25.18
2023-08-29T18:15:16.580Z,25.15
2023-08-29T18:19:28.904Z,24.92
2023-08-29T18:23:41.354Z,24.83
2023-08-29T18:27:53.905Z,25.04
2023-08-29T18:32:06.727Z,24.81
2023-08-29T18:36:19.246Z,24.72
2023-08-29T18:40:31.982Z,24.61
2023-08-29T18:44:44.364Z,24.94
2023-08-29T18:48:57.430Z,24.84
2023-08-29T18:53:11.111Z,25.05
2023-08-29T18:57:23.815Z,25.29
2023-08-29T19:01:36.534Z,25.16
2023-08-29T19:05:49.219Z,25.05
2023-08-29T19:10:02.496Z,25.06
2023-08-29T19:14:14.887Z,25.10
2023-08-29T19:18:28.441Z,24.98
2023-08-29T19:22:40.927Z,25.07
2023-08-29T19:26:53.311Z,25.09
2023-08-29T19:31:05.735Z,25.11
2023-08-29T19:35:18.255Z,25.03
2023-08-29T19:39:31.868Z,24.84
2023-08-29T19:43:44.358Z,24.80
2023-08-29T19:47:57.361Z,24.63
2023-08-29T19:52:09.991Z,24.50
2023-08-29T19:56:22.316Z,24.51
2023-08-29T20:00:34.783Z,24.41
2023-08-29T20:04:47.178Z,24.51
2023-08-29T20:08:59.676Z,24.39
2023-08-29T20:13:12.331Z,24.51
2023-08-29T20:17:25.489Z,24.44
2023-08-29T20:21:38.060Z,24.44
2023-08-29T20:25:52.121Z,24.57
2023-08-29T20:30:06.048Z,24.66
2023-08-29T20:34:18.504Z,24.48
2023-08-29T20:38:31.073Z,24.53
2023-08-29T20:42:43.711Z,24.69
2023-08-29T20:46:56.239Z,24.60
2023-08-29T20:51:08.957Z,24.53
2023-08-29T20:55:23.266Z,24.50
2023-08-29T20:59:35.746Z,24.47
2023-08-29T21:03:48.215Z,24.38
2023-08-29T21:08:00.776Z,24.36
2023-08-29T21:12:13.329Z,24.22
2023-08-29T21:16:25.993Z,24.33
2023-08-29T21:20:39.110Z,24.20
2023-08-29T21:24:51.612Z,24.06
2023-08-29T21:29:04.088Z,23.98
2023-08-29T21:33:16.545Z,24.17
2023-08-29T21:37:28.985Z,23.95
2023-08-29T21:41:41.873Z,24.03
2023-08-29T21:46:01.944Z,23.90
2023-08-29T21:50:14.493Z,23.93
2023-08-29T21:54:26.805Z,23.87
2023-08-29T21:58:39.428Z,23.77
2023-08-29T22:02:55.748Z,23.71
2023-08-29T22:07:08.270Z,23.80
2023-08-29T22:11:20.668Z,23.75
2023-08-29T22:15:33.192Z,23.76
2023-08-29T22:19:45.643Z,23.74
2023-08-29T22:23:58.045Z,23.64
2023-08-29T22:28:10.792Z,23.75
2023-08-29T22:32:23.586Z,23.71
2023-08-29T22:36:37.307Z,23.60
2023-08-29T22:40:50.322Z,23.67
2023-08-29T22:45:02.645Z,23.60
2023-08-29T22:49:15.033Z,23.49
2023-08-29T22:53:27.453Z,23.52
2023-08-29T22:57:39.917Z,23.45
2023-08-29T23:01:53.416Z,23.32
2023-08-29T23:06:06.955Z,23.33
2023-08-29T23:10:19.560Z,23.41
2023-08-29T23:14:32.655Z,23.59
2023-08-29T23:18:45.089Z,23.56
2023-08-29T23:22:57.513Z,23.63
2023-08-29T23:27:09.895Z,23.68
2023-08-29T23:31:22.330Z,23.72
2023-08-29T23:35:34.841Z,23.68
2023-08-29T23:39:47.373Z,23.77
2023-08-29T23:44:00.484Z,23.73
2023-08-29T23:48:12.937Z,23.61
2023-08-29T23:52:25.970Z,23.83
2023-08-29T23:56:38.522Z,23.86
